createdAt,value
2018-03-08T00:01:50.943Z,1.27
2018-03-08T00:04:19.104Z,1.40
2018-03-08T00:06:47.350Z,1.17
2018-03-08T00:09:15.520Z,1.60
2018-03-08T00:11:43.720Z,1.00
2018-03-08T00:14:11.901Z,1.50
2018-03-08T00:16:40.077Z,1.00
2018-03-08T00:19:08.274Z,1.57
2018-03-08T00:21:36.438Z,1.10
2018-03-08T00:24:05.395Z,1.10
2018-03-08T00:26:33.603Z,0.90
2018-03-08T00:29:01.784Z,1.03
2018-03-08T00:31:29.966Z,1.00
2018-03-08T00:33:58.136Z,1.70
2018-03-08T00:36:26.339Z,1.50
2018-03-08T00:38:55.278Z,1.23
2018-03-08T00:41:23.450Z,1.57
2018-03-08T00:43:51.633Z,1.10
2018-03-08T00:46:19.817Z,0.80
2018-03-08T00:48:48.013Z,1.07
2018-03-08T00:51:16.194Z,1.07
2018-03-08T00:53:44.400Z,1.60
2018-03-08T00:56:12.588Z,0.90
2018-03-08T00:58:40.753Z,1.07
2018-03-08T01:01:08.924Z,1.23
2018-03-08T01:03:37.105Z,0.80
2018-03-08T01:06:05.271Z,1.17
2018-03-08T01:08:33.438Z,1.90
2018-03-08T01:11:02.377Z,1.00
2018-03-08T01:13:30.576Z,1.43
2018-03-08T01:15:58.765Z,1.00
2018-03-08T01:18:27.690Z,1.40
2018-03-08T01:20:55.856Z,1.10
2018-03-08T01:23:24.039Z,1.10
2018-03-08T01:25:52.205Z,1.23
2018-03-08T01:28:20.366Z,1.10
2018-03-08T01:30:49.324Z,1.30
2018-03-08T01:33:17.518Z,1.10
2018-03-08T01:35:46.452Z,1.10
2018-03-08T01:38:14.653Z,1.00
2018-03-08T01:40:42.828Z,1.00
2018-03-08T01:43:10.998Z,1.00
2018-03-08T01:45:39.193Z,1.00
2018-03-08T01:48:07.382Z,1.20
2018-03-08T01:50:35.562Z,1.10
2018-03-08T01:53:03.742Z,0.90
2018-03-08T01:55:32.679Z,1.00
2018-03-08T01:58:00.859Z,0.93
2018-03-08T02:00:29.023Z,1.10
2018-03-08T02:02:57.202Z,0.90
2018-03-08T02:05:25.395Z,0.87
2018-03-08T02:07:53.614Z,0.93
2018-03-08T02:10:22.574Z,0.80
2018-03-08T02:12:50.775Z,0.90
2018-03-08T02:15:19.728Z,3.83
2018-03-08T02:17:47.923Z,2.60
2018-03-08T02:20:16.093Z,1.90
2018-03-08T02:22:44.289Z,2.00
2018-03-08T02:25:12.461Z,1.70
2018-03-08T02:27:40.640Z,2.00
2018-03-08T02:30:09.579Z,1.27
2018-03-08T02:32:37.783Z,1.80
2018-03-08T02:35:06.022Z,0.93
2018-03-08T02:37:34.185Z,0.83
2018-03-08T02:40:02.363Z,0.80
2018-03-08T02:42:30.555Z,0.90
2018-03-08T02:44:58.753Z,1.37
2018-03-08T02:47:26.950Z,0.93
2018-03-08T02:49:55.931Z,1.37
2018-03-08T02:52:24.102Z,1.33
2018-03-08T02:54:52.272Z,1.40
2018-03-08T02:57:20.462Z,1.57
2018-03-08T02:59:48.629Z,1.93
2018-03-08T03:02:16.790Z,1.37
2018-03-08T03:04:44.984Z,1.70
2018-03-08T03:07:13.146Z,1.40
2018-03-08T03:09:41.327Z,1.20
2018-03-08T03:12:09.514Z,1.23
2018-03-08T03:14:39.178Z,1.40
2018-03-08T03:17:07.376Z,1.47
2018-03-08T03:19:35.539Z,1.50
2018-03-08T03:22:03.738Z,1.30
2018-03-08T03:24:31.897Z,1.60
2018-03-08T03:27:00.083Z,1.60
2018-03-08T03:29:28.246Z,1.60
2018-03-08T03:31:56.414Z,1.60
2018-03-08T03:34:25.376Z,1.70
2018-03-08T03:36:53.590Z,1.30
2018-03-08T03:39:21.751Z,1.40
2018-03-08T03:41:49.924Z,1.30
2018-03-08T03:44:18.106Z,1.60
2018-03-08T03:46:46.278Z,1.30
2018-03-08T03:49:14.478Z,1.60
2018-03-08T03:51:42.678Z,1.47
2018-03-08T03:54:11.662Z,1.30
2018-03-08T03:56:40.599Z,1.20
2018-03-08T03:59:08.789Z,1.30
2018-03-08T04:01:36.986Z,1.70
2018-03-08T04:04:05.159Z,2.40
2018-03-08T04:06:33.335Z,1.77
2018-03-08T04:09:01.507Z,3.60
2018-03-08T04:11:29.711Z,3.50
2018-03-08T04:13:58.655Z,3.57
2018-03-08T04:16:27.617Z,3.70
2018-03-08T04:18:55.782Z,3.50
2018-03-08T04:21:23.942Z,3.93
2018-03-08T04:23:52.899Z,5.13
2018-03-08T04:26:21.069Z,6.10
2018-03-08T04:28:49.244Z,4.80
2018-03-08T04:31:17.415Z,5.53
2018-03-08T04:33:45.583Z,5.20
2018-03-08T04:36:13.759Z,4.23
2018-03-08T04:38:41.945Z,4.87
2018-03-08T04:41:10.145Z,4.90
2018-03-08T04:43:38.337Z,5.00
2018-03-08T04:46:07.267Z,6.17
2018-03-08T04:48:35.425Z,5.23
2018-03-08T04:51:03.590Z,5.00
2018-03-08T04:53:31.747Z,5.47
2018-03-08T04:56:00.709Z,5.90
2018-03-08T04:58:28.978Z,5.73
2018-03-08T05:00:57.174Z,4.77
2018-03-08T05:03:25.330Z,4.30
2018-03-08T05:05:53.498Z,5.67
2018-03-08T05:08:21.677Z,4.90
2018-03-08T05:10:49.842Z,5.00
2018-03-08T05:13:18.066Z,5.40
2018-03-08T05:15:47.020Z,5.60
2018-03-08T05:18:15.223Z,5.70
2018-03-08T05:20:43.390Z,5.30
2018-03-08T05:23:11.561Z,5.40
2018-03-08T05:25:39.748Z,5.53
2018-03-08T05:28:07.930Z,5.40
2018-03-08T05:30:36.891Z,4.90
2018-03-08T05:33:05.077Z,5.27
2018-03-08T05:35:33.269Z,5.43
2018-03-08T05:38:02.215Z,5.03
2018-03-08T05:40:30.387Z,5.33
2018-03-08T05:42:58.579Z,5.97
2018-03-08T05:45:26.746Z,5.73
2018-03-08T05:47:54.911Z,5.20
2018-03-08T05:50:23.108Z,5.50
2018-03-08T05:52:51.282Z,5.93
2018-03-08T05:55:19.451Z,5.47
2018-03-08T05:57:47.614Z,5.30
2018-03-08T06:00:15.813Z,5.93
2018-03-08T06:02:44.012Z,6.37
2018-03-08T06:05:12.953Z,6.57
2018-03-08T06:07:41.180Z,5.67
2018-03-08T06:10:10.187Z,5.53
2018-03-08T06:12:38.358Z,6.30
2018-03-08T06:15:07.303Z,6.27
2018-03-08T06:17:35.469Z,5.80
2018-03-08T06:20:03.662Z,6.13
2018-03-08T06:22:31.844Z,6.60
2018-03-08T06:25:00.024Z,5.77
2018-03-08T06:27:28.196Z,6.77
2018-03-08T06:29:56.654Z,6.63
2018-03-08T06:32:24.991Z,5.57
2018-03-08T06:34:53.179Z,5.97
2018-03-08T06:37:21.363Z,7.03
2018-03-08T06:39:49.560Z,6.90
2018-03-08T06:42:17.735Z,7.43
2018-03-08T06:44:45.980Z,7.10
2018-03-08T06:47:14.148Z,6.43
2018-03-08T06:49:42.332Z,6.60
2018-03-08T06:52:10.525Z,6.10
2018-03-08T06:54:38.699Z,6.90
2018-03-08T06:57:06.892Z,6.87
2018-03-08T06:59:35.106Z,6.97
2018-03-08T07:02:04.060Z,7.33
2018-03-08T07:04:32.247Z,7.27
2018-03-08T07:07:00.481Z,7.40
2018-03-08T07:09:28.641Z,7.00
2018-03-08T07:11:56.806Z,10.50
2018-03-08T07:14:25.031Z,12.63
2018-03-08T07:16:53.214Z,9.43
2018-03-08T07:19:21.390Z,9.90
2018-03-08T07:21:49.608Z,10.27
2018-03-08T07:24:17.820Z,12.10
2018-03-08T07:26:46.022Z,13.33
2018-03-08T07:29:14.246Z,12.77
2018-03-08T07:31:42.421Z,12.70
2018-03-08T07:34:10.620Z,18.33
2018-03-08T07:36:38.799Z,17.63
2018-03-08T07:39:06.983Z,13.60
2018-03-08T07:41:35.208Z,12.93
2018-03-08T07:44:03.379Z,11.93
2018-03-08T07:46:31.553Z,12.20
2018-03-08T07:48:59.757Z,11.43
2018-03-08T07:51:27.942Z,11.67
2018-03-08T07:53:56.103Z,11.97
2018-03-08T07:56:24.325Z,10.83
2018-03-08T07:58:52.545Z,10.03
2018-03-08T08:01:20.726Z,9.90
2018-03-08T08:03:48.934Z,9.37
2018-03-08T08:06:35.113Z,9.43
2018-03-08T08:09:10.316Z,9.17
2018-03-08T08:11:38.489Z,9.40
2018-03-08T08:14:06.690Z,8.90
2018-03-08T08:16:34.854Z,8.10
2018-03-08T08:19:03.067Z,8.90
2018-03-08T08:21:31.238Z,7.90
2018-03-08T08:23:59.448Z,8.10
2018-03-08T08:26:27.640Z,8.57
2018-03-08T08:28:55.834Z,7.90
2018-03-08T08:31:24.095Z,8.13
2018-03-08T08:33:53.955Z,7.93
2018-03-08T08:36:22.151Z,8.83
2018-03-08T08:38:50.349Z,8.87
2018-03-08T08:41:19.277Z,8.80
2018-03-08T08:43:47.434Z,9.07
2018-03-08T08:46:15.609Z,9.50
2018-03-08T08:48:43.779Z,7.87
2018-03-08T08:51:11.988Z,7.40
2018-03-08T08:53:40.171Z,8.33
2018-03-08T08:56:08.351Z,8.77
2018-03-08T08:58:36.555Z,10.00
2018-03-08T09:01:05.499Z,7.90
2018-03-08T09:03:33.682Z,7.80
2018-03-08T09:06:01.855Z,6.83
2018-03-08T09:08:30.032Z,7.47
2018-03-08T09:10:58.223Z,8.10
2018-03-08T09:13:26.388Z,9.67
2018-03-08T09:15:55.339Z,8.07
2018-03-08T09:18:23.545Z,9.03
2018-03-08T09:20:51.710Z,7.23
2018-03-08T09:23:19.877Z,12.00
2018-03-08T09:25:48.063Z,10.37
2018-03-08T09:28:16.225Z,10.47
2018-03-08T09:30:44.462Z,8.90
2018-03-08T09:33:13.407Z,8.20
2018-03-08T09:35:41.619Z,9.07
2018-03-08T09:38:09.861Z,8.03
2018-03-08T09:40:38.019Z,7.70
2018-03-08T09:43:06.227Z,7.97
2018-03-08T09:45:34.409Z,7.33
2018-03-08T09:48:02.594Z,8.73
2018-03-08T09:50:30.775Z,6.00
2018-03-08T09:52:59.723Z,6.60
2018-03-08T09:55:27.926Z,6.40
2018-03-08T09:57:56.099Z,5.67
2018-03-08T10:00:24.266Z,5.30
2018-03-08T10:02:52.455Z,4.20
2018-03-08T10:05:20.627Z,4.70
2018-03-08T10:07:48.811Z,3.10
2018-03-08T10:10:17.778Z,6.00
2018-03-08T10:12:45.958Z,4.10
2018-03-08T10:15:14.129Z,3.50
2018-03-08T10:17:42.355Z,4.17
2018-03-08T10:20:11.306Z,4.33
2018-03-08T10:22:39.479Z,4.70
2018-03-08T10:25:07.657Z,5.30
2018-03-08T10:27:35.861Z,5.33
2018-03-08T10:30:04.800Z,4.30
2018-03-08T10:32:32.987Z,4.33
2018-03-08T10:35:01.186Z,3.73
2018-03-08T10:37:30.867Z,3.70
2018-03-08T10:39:59.025Z,3.57
2018-03-08T10:44:55.417Z,2.77
2018-03-08T10:47:23.594Z,2.20
2018-03-08T10:49:51.762Z,1.90
2018-03-08T10:52:21.436Z,2.13
2018-03-08T10:54:49.638Z,2.20
2018-03-08T10:57:17.816Z,2.43
2018-03-08T10:59:45.990Z,2.30
2018-03-08T11:02:17.250Z,2.37
2018-03-08T11:04:51.065Z,1.60
2018-03-08T11:07:20.006Z,3.23
2018-03-08T11:09:48.188Z,3.17
2018-03-08T11:12:16.365Z,2.83
2018-03-08T11:14:44.568Z,2.50
2018-03-08T11:17:12.737Z,3.80
2018-03-08T11:19:40.906Z,2.80
2018-03-08T11:22:09.071Z,2.63
2018-03-08T11:24:37.267Z,2.70
2018-03-08T11:27:06.217Z,2.23
2018-03-08T11:29:34.382Z,2.17
2018-03-08T11:32:02.563Z,1.80
2018-03-08T11:34:30.750Z,2.00
2018-03-08T11:36:58.924Z,2.00
2018-03-08T11:39:27.194Z,1.87
2018-03-08T11:41:55.379Z,1.50
2018-03-08T11:44:23.569Z,1.60
2018-03-08T11:46:51.736Z,1.27
2018-03-08T11:49:21.070Z,1.70
2018-03-08T11:51:48.150Z,1.70
2018-03-08T11:54:16.350Z,1.40
2018-03-08T11:56:44.523Z,1.70
2018-03-08T11:59:12.730Z,1.77
2018-03-08T12:01:40.928Z,1.90
2018-03-08T12:04:09.865Z,1.93
2018-03-08T12:06:38.038Z,2.37
2018-03-08T12:09:06.206Z,2.23
2018-03-08T12:11:34.379Z,1.70
2018-03-08T12:14:02.571Z,2.10
2018-03-08T12:16:30.734Z,2.07
2018-03-08T12:18:58.924Z,1.60
2018-03-08T12:21:27.103Z,2.50
2018-03-08T12:23:55.275Z,2.43
2018-03-08T12:26:23.439Z,2.43
2018-03-08T12:28:54.264Z,2.50
2018-03-08T12:31:22.436Z,2.63
2018-03-08T12:33:50.611Z,2.00
2018-03-08T12:36:18.916Z,2.17
2018-03-08T12:38:47.097Z,2.00
2018-03-08T12:41:15.320Z,1.80
2018-03-08T12:43:43.672Z,2.63
2018-03-08T12:46:12.659Z,2.10
2018-03-08T12:48:40.861Z,1.77
2018-03-08T12:51:09.028Z,2.03
2018-03-08T12:53:37.203Z,1.63
2018-03-08T12:56:06.165Z,1.90
2018-03-08T12:58:34.362Z,1.87
2018-03-08T13:01:03.439Z,2.20
2018-03-08T13:03:31.738Z,1.90
2018-03-08T13:06:00.678Z,1.83
2018-03-08T13:08:29.034Z,2.20
2018-03-08T13:10:57.194Z,1.73
2018-03-08T13:13:25.379Z,1.87
2018-03-08T13:15:53.551Z,1.43
2018-03-08T13:18:21.723Z,2.23
2018-03-08T13:20:49.919Z,1.90
2018-03-08T13:23:18.113Z,1.80
2018-03-08T13:25:46.335Z,1.83
2018-03-08T13:28:14.494Z,2.20
2018-03-08T13:30:42.695Z,2.77
2018-03-08T13:33:10.894Z,1.70
2018-03-08T13:35:39.072Z,1.70
2018-03-08T13:38:07.292Z,1.50
2018-03-08T13:40:36.239Z,1.70
2018-03-08T13:43:04.442Z,1.70
2018-03-08T13:45:32.608Z,1.87
2018-03-08T13:48:00.774Z,2.00
2018-03-08T13:50:28.943Z,1.90
2018-03-08T13:52:57.115Z,1.93
2018-03-08T13:55:25.310Z,2.00
2018-03-08T13:57:53.523Z,3.00
2018-03-08T14:00:22.487Z,2.10
2018-03-08T14:02:51.414Z,1.70
2018-03-08T14:05:20.347Z,2.70
2018-03-08T14:07:48.558Z,2.00
2018-03-08T14:10:16.746Z,1.70
2018-03-08T14:12:45.698Z,2.13
2018-03-08T14:15:13.891Z,1.90
2018-03-08T14:17:42.091Z,2.10
2018-03-08T14:20:11.081Z,2.27
2018-03-08T14:22:39.219Z,2.93
2018-03-08T14:25:07.387Z,2.17
2018-03-08T14:27:35.570Z,2.33
2018-03-08T14:30:03.744Z,2.53
2018-03-08T14:32:31.908Z,2.07
2018-03-08T14:35:00.096Z,2.63
2018-03-08T14:37:28.271Z,2.57
2018-03-08T14:39:56.451Z,2.50
2018-03-08T14:42:24.626Z,2.63
2018-03-08T14:44:53.584Z,2.60
2018-03-08T14:47:21.762Z,2.23
2018-03-08T14:49:49.930Z,2.33
2018-03-08T14:52:18.113Z,2.70
2018-03-08T14:54:46.279Z,2.33
2018-03-08T14:57:14.462Z,2.37
2018-03-08T14:59:42.640Z,2.67
2018-03-08T15:02:10.802Z,2.23
2018-03-08T15:04:39.005Z,2.70
2018-03-08T15:07:07.186Z,2.93
2018-03-08T15:09:40.058Z,3.60
2018-03-08T15:12:11.221Z,3.90
2018-03-08T15:14:40.387Z,3.27
2018-03-08T15:17:08.588Z,3.63
2018-03-08T15:19:36.763Z,3.80
2018-03-08T15:22:05.715Z,3.53
2018-03-08T15:24:36.647Z,3.77
2018-03-08T15:27:05.045Z,3.70
2018-03-08T15:29:33.236Z,3.60
2018-03-08T15:32:01.430Z,4.10
2018-03-08T15:34:29.876Z,3.77
2018-03-08T15:36:59.329Z,3.87
2018-03-08T15:39:29.673Z,3.10
2018-03-08T15:41:58.643Z,4.00
2018-03-08T15:44:26.826Z,3.80
2018-03-08T15:47:00.239Z,4.17
2018-03-08T15:49:30.091Z,3.70
2018-03-08T15:51:58.272Z,3.87
2018-03-08T15:54:27.149Z,3.53
2018-03-08T15:57:00.138Z,4.17
2018-03-08T15:59:28.314Z,4.13
2018-03-08T16:01:57.819Z,5.40
2018-03-08T16:04:26.008Z,4.90
2018-03-08T16:10:36.497Z,3.77
2018-03-08T16:13:04.826Z,5.00
2018-03-08T16:15:33.786Z,3.93
2018-03-08T16:18:01.954Z,4.30
2018-03-08T16:20:30.135Z,5.00
2018-03-08T16:22:58.311Z,4.43
2018-03-08T16:25:26.507Z,5.33
2018-03-08T16:27:55.451Z,4.50
2018-03-08T16:30:23.795Z,5.13
2018-03-08T16:32:56.061Z,5.67
2018-03-08T16:35:24.446Z,5.77
2018-03-08T16:37:52.636Z,5.80
2018-03-08T16:40:20.812Z,7.23
2018-03-08T16:42:49.809Z,6.80
2018-03-08T16:45:21.480Z,7.30
2018-03-08T16:47:49.739Z,8.37
2018-03-08T16:50:17.935Z,9.07
2018-03-08T16:52:50.956Z,7.33
2018-03-08T16:55:19.383Z,18.53
2018-03-08T16:57:47.607Z,19.43
2018-03-08T17:00:15.823Z,7.93
2018-03-08T17:02:47.698Z,6.53
2018-03-08T17:05:16.929Z,7.73
2018-03-08T17:07:45.134Z,6.90
2018-03-08T17:10:14.109Z,7.00
2018-03-08T17:12:42.308Z,7.50
2018-03-08T17:15:11.242Z,8.63
2018-03-08T17:17:39.433Z,8.20
2018-03-08T17:20:07.618Z,8.23
2018-03-08T17:22:35.800Z,7.10
2018-03-08T17:25:04.008Z,7.80
2018-03-08T17:27:32.227Z,9.13
2018-03-08T17:30:00.475Z,8.10
2018-03-08T17:32:28.637Z,8.07
2018-03-08T17:34:56.825Z,9.10
2018-03-08T17:37:25.028Z,10.10
2018-03-08T17:39:53.202Z,8.47
2018-03-08T17:42:21.426Z,9.47
2018-03-08T17:44:49.647Z,8.13
2018-03-08T17:47:17.850Z,8.60
2018-03-08T17:49:46.043Z,9.50
2018-03-08T17:52:19.190Z,12.90
2018-03-08T17:54:48.539Z,13.93
2018-03-08T17:57:17.493Z,9.37
2018-03-08T17:59:45.836Z,9.50
2018-03-08T18:02:14.841Z,10.70
2018-03-08T18:04:43.436Z,8.93
2018-03-08T18:07:15.697Z,12.23
2018-03-08T18:09:44.190Z,12.47
2018-03-08T18:12:12.379Z,11.50
2018-03-08T18:14:40.569Z,11.73
2018-03-08T18:17:09.772Z,12.37
2018-03-08T18:19:37.988Z,12.37
2018-03-08T18:22:06.158Z,11.43
2018-03-08T18:24:34.349Z,13.43
2018-03-08T18:27:02.514Z,11.07
2018-03-08T18:29:30.708Z,11.60
2018-03-08T18:31:58.882Z,11.70
2018-03-08T18:34:27.150Z,11.60
2018-03-08T18:36:55.324Z,12.43
2018-03-08T18:39:23.512Z,12.77
2018-03-08T18:41:51.716Z,11.80
2018-03-08T18:44:19.896Z,13.23
2018-03-08T18:46:48.127Z,13.50
2018-03-08T18:49:16.306Z,14.10
2018-03-08T18:51:44.484Z,13.40
2018-03-08T18:54:12.698Z,13.00
2018-03-08T18:56:41.653Z,13.50
2018-03-08T18:59:09.828Z,13.53
2018-03-08T19:01:37.994Z,14.97
2018-03-08T19:04:06.183Z,12.47
2018-03-08T19:06:34.372Z,13.37
2018-03-08T19:09:02.571Z,12.97
2018-03-08T19:11:31.560Z,13.00
2018-03-08T19:14:00.513Z,12.43
2018-03-08T19:16:28.693Z,12.90
2018-03-08T19:18:56.881Z,13.00
2018-03-08T19:21:25.083Z,12.57
2018-03-08T19:23:54.046Z,12.90
2018-03-08T19:26:22.255Z,12.90
2018-03-08T19:28:51.217Z,13.47
2018-03-08T19:31:19.416Z,14.10
2018-03-08T19:33:48.383Z,12.73
2018-03-08T19:36:16.697Z,13.27
2018-03-08T19:38:44.894Z,14.37
2018-03-08T19:41:13.093Z,16.80
2018-03-08T19:43:41.301Z,21.90
2018-03-08T19:46:09.488Z,16.70
2018-03-08T19:48:38.524Z,19.33
2018-03-08T19:51:06.719Z,14.87
2018-03-08T19:53:34.904Z,13.63
2018-03-08T19:56:03.089Z,14.03
2018-03-08T19:58:31.299Z,14.07
2018-03-08T20:00:59.471Z,13.40
2018-03-08T20:03:27.662Z,14.63
2018-03-08T20:05:55.843Z,14.67
2018-03-08T20:08:24.013Z,12.90
2018-03-08T20:10:52.197Z,14.40
2018-03-08T20:13:20.379Z,12.30
2018-03-08T20:15:48.555Z,13.50
2018-03-08T20:18:16.731Z,13.43
2018-03-08T20:20:44.923Z,14.20
2018-03-08T20:23:13.133Z,14.77
2018-03-08T20:25:42.063Z,14.40
2018-03-08T20:28:10.249Z,14.20
2018-03-08T20:30:38.464Z,16.03
2018-03-08T20:33:07.411Z,14.67
2018-03-08T20:35:35.598Z,16.97
2018-03-08T20:38:03.784Z,17.73
2018-03-08T20:40:32.035Z,23.90
2018-03-08T20:43:00.211Z,19.60
2018-03-08T20:45:28.410Z,35.90
2018-03-08T20:47:56.603Z,18.97
2018-03-08T20:50:25.562Z,16.37
2018-03-08T20:52:53.736Z,14.40
2018-03-08T20:55:22.000Z,15.57
2018-03-08T20:57:50.206Z,14.57
2018-03-08T21:00:18.386Z,13.90
2018-03-08T21:02:46.590Z,14.80
2018-03-08T21:05:15.620Z,14.17
2018-03-08T21:07:43.812Z,14.90
2018-03-08T21:10:11.988Z,14.37
2018-03-08T21:12:40.190Z,14.20
2018-03-08T21:15:09.125Z,14.40
2018-03-08T21:17:37.358Z,12.83
2018-03-08T21:20:07.099Z,13.90
2018-03-08T21:22:35.281Z,14.23
2018-03-08T21:25:03.477Z,12.23
2018-03-08T21:27:31.671Z,12.60
2018-03-08T21:29:59.850Z,12.27
2018-03-08T21:32:28.825Z,12.03
2018-03-08T21:34:57.044Z,12.50
2018-03-08T21:37:25.999Z,12.50
2018-03-08T21:39:54.172Z,11.40
2018-03-08T21:42:22.367Z,12.57
2018-03-08T21:44:50.570Z,11.33
2018-03-08T21:47:19.513Z,11.17
2018-03-08T21:49:47.721Z,11.80
2018-03-08T21:52:15.912Z,10.63
2018-03-08T21:54:44.877Z,11.03
2018-03-08T21:57:13.061Z,13.80
2018-03-08T21:59:41.245Z,10.80
2018-03-08T22:02:10.208Z,11.60
2018-03-08T22:04:39.162Z,11.50
2018-03-08T22:07:07.357Z,11.57
2018-03-08T22:09:35.564Z,14.90
2018-03-08T22:12:03.748Z,18.80
2018-03-08T22:14:32.708Z,12.97
2018-03-08T22:17:00.898Z,10.17
2018-03-08T22:19:29.079Z,11.33
2018-03-08T22:21:57.274Z,10.73
2018-03-08T22:24:26.305Z,11.00
2018-03-08T22:26:54.517Z,18.00
2018-03-08T22:29:22.688Z,15.43
2018-03-08T22:31:50.886Z,11.07
2018-03-08T22:34:19.058Z,9.97
2018-03-08T22:36:47.217Z,9.63
2018-03-08T22:39:15.410Z,10.37
2018-03-08T22:41:43.590Z,10.30
2018-03-08T22:44:12.545Z,11.43
2018-03-08T22:46:40.763Z,15.63
2018-03-08T22:49:09.730Z,15.00
2018-03-08T22:51:37.914Z,12.43
2018-03-08T22:54:06.087Z,15.17
2018-03-08T22:56:34.259Z,10.57
2018-03-08T22:59:02.446Z,8.70
2018-03-08T23:04:51.005Z,8.50
2018-03-08T23:07:19.244Z,11.03
2018-03-08T23:09:47.423Z,10.93
2018-03-08T23:12:15.622Z,9.57
2018-03-08T23:14:43.818Z,9.53
2018-03-08T23:17:11.984Z,9.50
2018-03-08T23:19:41.667Z,10.13
2018-03-08T23:22:09.864Z,10.27
2018-03-08T23:24:38.063Z,9.77
2018-03-08T23:27:06.992Z,9.67
2018-03-08T23:29:35.167Z,9.97
2018-03-08T23:32:03.347Z,9.33
2018-03-08T23:34:31.507Z,9.10
2018-03-08T23:36:59.677Z,9.23
2018-03-08T23:39:27.871Z,9.77
2018-03-08T23:41:56.060Z,9.90
2018-03-08T23:44:24.269Z,9.13
2018-03-08T23:46:52.436Z,9.03
2018-03-08T23:49:20.623Z,9.23
2018-03-08T23:51:49.571Z,9.13
2018-03-08T23:54:17.843Z,9.13
2018-03-08T23:56:46.036Z,9.03
2018-03-08T23:59:14.210Z,8.13
